• Join FlightAware (Why Join?)
  • Login
  • US Flag 
04:53AM EDT


 

Airport Tracker/Info


-or-


 

Live Flight TrackerFlight Track Log ✈ N163ME ✈ 08-May-2013 ✈ KFDK - KFDK

Flight Track Log - Related Links

Times and Time Zones

All times are in EDT time to prevent confusion due to time zone crossing. See the N163ME flight status page for this flight to view local times or setup timezone preferences in your user account.

Time Position Orientation Groundspeed Altitude Reporting Facility
EDT Latitude Longitude Course Direction KTS MPH feet Rate Location/Type
11:10AM 39.4167 -77.3667 67° East 98 113 3,000  Level Potomac TRACON
11:11AM 39.4333 -77.3167 67° East 110 127 3,000 -60 Level Potomac TRACON
11:12AM 39.4333 -77.2833 90° East 108 124 2,900 -60 Descending Potomac TRACON
11:13AM 39.4333 -77.2500 90° East 107 123 2,900  Level Potomac TRACON
11:14AM 39.4500 -77.2167 57° Northeast 113 130 2,900 60 Level Potomac TRACON
11:15AM 39.4500 -77.1833 90° East 99 114 3,100  Climbing Potomac TRACON
11:16AM 39.4667 -77.1500 57° Northeast 104 120 3,000 -60 Descending Potomac TRACON
11:17AM 39.4667 -77.1000 90° East 106 122 3,000  Level Potomac TRACON
11:18AM 39.4667 -77.0667 90° East 101 116 3,000  Level Potomac TRACON
11:19AM 39.4833 -77.0333 57° Northeast 109 125 3,000  Level Potomac TRACON
11:20AM 39.4833 -77.0000 90° East 107 123 3,000  Level Potomac TRACON
11:21AM 39.4833 -76.9667 90° East 103 119 3,000  Level Potomac TRACON
11:22AM 39.4667 -76.9500 142° Southeast 97 112 3,100  Climbing Potomac TRACON
11:23AM 39.4500 -76.9667 218° Southwest 104 120 3,000 -60 Descending Potomac TRACON
11:24AM 39.4667 -76.9833 322° Northwest 114 131 3,000  Level Potomac TRACON
11:25AM 39.4833 -76.9667 38° Northeast 113 130 3,000 -60 Level Potomac TRACON
11:26AM 39.5167 -76.9833 339° North 114 131 2,900 -300 Descending Potomac TRACON
11:27AM 39.5500 -76.9833 360° North 113 130 2,400 -600 Descending Potomac TRACON
11:28AM 39.5833 -77.0000 339° North 105 121 1,700 -480 Descending Potomac TRACON
11:29AM 39.6167 -77.0000 360° North 112 129 1,500 -120 Descending Potomac TRACON
11:30AM 39.6167 -77.0000 180° South 104 120 1,500 720 Level Potomac TRACON
11:31AM 39.5833 -77.0000 180° South 91 105 3,000 720 Climbing Potomac TRACON
11:32AM 39.5500 -77.0000 180° South 105 121 3,000 -60 Level Potomac TRACON
11:33AM 39.5333 -77.0000 180° South 101 116 2,900 -60 Descending Potomac TRACON
11:34AM 39.5000 -76.9833 159° South 102 117 2,900  Level Potomac TRACON
11:35AM 39.4833 -76.9833 180° South 101 116 3,000  Climbing Potomac TRACON
11:36AM 39.4500 -76.9833 180° South 99 114 2,900 -60 Descending Potomac TRACON
11:37AM 39.4667 -76.9667 38° Northeast 119 137 2,900  Level Potomac TRACON
11:38AM 39.5000 -76.9833 339° North 108 124 3,000  Climbing Potomac TRACON
11:39AM 39.5000 -77.0000 270° West 133 153 3,000  Level Potomac TRACON
11:40AM 39.4667 -76.9833 159° South 98 113 3,000  Level Potomac TRACON
11:41AM 39.4667 -76.9667 90° East 126 145 3,000  Level Potomac TRACON
11:42AM 39.5000 -76.9833 339° North 109 125 3,000 -60 Level Potomac TRACON
11:43AM 39.4833 -77.0000 218° Southwest 128 147 2,900 -180 Descending Potomac TRACON
11:44AM 39.4667 -76.9667 123° Southeast 107 123 2,700 -120 Descending Potomac TRACON
11:45AM 39.4500 -76.9500 142° Southeast 101 116 2,700 -60 Level Potomac TRACON
11:46AM 39.4333 -76.9167 123° Southeast 98 113 2,600 -60 Descending Potomac TRACON
11:47AM 39.4167 -76.9000 142° Southeast 99 114 2,600  Level Potomac TRACON
11:48AM 39.4333 -76.8833 38° Northeast 108 124 2,600 -60 Level Potomac TRACON
11:49AM 39.4667 -76.9000 339° North 102 117 2,500 -180 Descending Potomac TRACON
11:50AM 39.5000 -76.9000 360° North 114 131 2,300 -300 Descending Potomac TRACON
11:51AM 39.5167 -76.9333 303° West 107 123 2,000 -120 Descending Potomac TRACON
11:52AM 39.5333 -76.9500 322° Northwest 104 120 2,100 -120 Climbing Potomac TRACON
11:53AM 39.5667 -76.9833 322° Northwest 115 132 1,800 -300 Descending Potomac TRACON
11:54AM 39.5833 -77.0000 322° Northwest 119 137 1,600 -120 Descending Potomac TRACON
11:55AM 39.6000 -77.0000 360° North 107 123 1,600  Level Potomac TRACON